Airfield :
LOGIN :

Register | Disclaimer

   EN    FR    IT 

 










Legend :    VFR   Marginal VFR   IFR   Intensive IFR   Very Intensive IFR
Visi :
Ceiling :
>= 8 km
>= 3000ft
5 to 8 km
1000 to 3000 ft
1500m to 5 km
500 to 1000 ft
800 to 1500m
200 to 500 ft
< 800m
< 200 ft
Symbols :   Thunderstorms  Fog  Heavy snow  Heavy precipitations  Wind > 20 kt
SIGMETs :     Misc.  Thunderstorms  Icing  Turbulence  Mountain Waves  Volcanic Ashes







- Airport Elevation : 309 ft
- IATA code : FNI
- Download approach charts


LFTW - Nîmes Garons

CURRENT METAR :
  • 240500Z AUTO 00000KT 2000 BR NSC 14/13 Q1014 TEMPO 0900 FG BKN007

EXPIRED METARs :
  • 240430Z AUTO 00000KT 3300 BR NSC 13/13 Q1014 TEMPO 0900 FG BKN007
  • 240400Z AUTO 03002KT 2800 BR NSC 13/12 Q1014 TEMPO 0900 FG BKN007
  • 240330Z AUTO 00000KT 1400 R18/0800U BCFG FEW006 BKN180 BKN230 13/13 Q1014 TEMPO BKN007
  • 240300Z AUTO 00000KT 0900 0450 R18/1700D FG FEW007 SCT170 13/12 Q1014 TEMPO 1500 BR BKN007
  • 240230Z AUTO VRB01KT 3200 BR NSC 14/13 Q1014 TEMPO BKN014 BECMG 9999 NSW

TAF AMD TAF LFTW
Valid from the 24 at 03:00 until the 25 at 03:00 UTC


240313Z 2403/2503 VRB05KT 9999 FEW015
PROB40
TEMPO 2403/2407 0900 FG BKN007
BECMG 2410/2412 19010KT
BECMG 2416/2418 26010KT
BECMG 2418/2420 VRB05KT
TEMPO 2421/2503 4000 BR BKN010
BECMG 2422/2424 27008KT
No reported NOTAMs for that airfield.



MET'MAP, your aeronautical weather chart ! - Copyright ORBIFLY December 2007 - Disclaimer

ORBIFLY MET'MAP TEAM :

Programming & Development : Alexandra Zaïnal
Concept & Development : Baudouin d'Aumeries
Co-Development & Prog : Marc-Olivier Méhu
Technical & hardware support : Manuel Goepfert

Contact : metmap@orbifly.com




SOURCES & CREDITS :

   NOAA